Pittsburgh, Pennsylvania
Traffic Map
Current Weather Conditions
Pittsburgh, Pennsylvania
Few Clouds
Few Clouds
29°
Feels Like: 31°
Wind Chill: 29° Ceiling: Unl
Heat Index: 31° Visibility: 10mi
Dew Point: 20° Wind: 8mph
Humidity: 58% Direction: 300° (WNW)
Pressure: 30in Gusts: 0mph
Raw Report DataKAGC 272053Z 30007KT 10SM FEW046 29/20 A3000 RMK AO2 SLP156 T02890200 56016
Traffic Incident Summary
Active as of:
Severity:
Category:
InformationThere was an issue retrieving the traffic information for this location. Please try a different location or try again shortly.
Advertisements
Track Severe Weather on mobile